Etihad Airways Virtual Airport Information Service

Brisbane Airport

ICAO: YBBN Country: Australia
Latitude: -27.3841 Longitude: 153.117
Latest Arrival : ETD484 (OMAA-YBBN) Latest Departure : ETD485 (YBBN-OMAA)


WX CaptureLIVE
Data provided by noaa.gov | Recorded at 05:18:13

METAR : YBBN 190500Z 02017KT 9999 FEW025 BKN270 30/25 Q1004 NOSIG

TAF :


Runway Data for YBBN
Data provided by openaviationdata.com

Runway ID Mag Var Hdg Length Elevation Surface ILS Freq ILS Id ILS Slope

Brisbane Airport, Australia
Use only for reference purposes